KSUE/SUE METAR and TAF weather

Enter ICAO airport designator
Station Type Date Time Source
KSUE METAR 2021/08/05 04:56 UTC NOAA

KSUE 050456Z AUTO 20006KT 9SM CLR 21/17 A3008 RMK AO2 SLP181 T02060172 PNO $


Station Type Date Time Source
KSUE Decoded METAR 2021/08/05 04:56 UTC NOAA

Sturgeon Bay, WI, United States (KSUE) 44-51N 087-25W
Aug 05, 2021 - 12:56 AM EDT / 2021.08.05 0456 UTC
Wind: from the SSW (200 degrees) at 7 MPH (6 KT):0
Visibility: 9 mile(s):0
Sky conditions: clear
Temperature: 69.1 F (20.6 C)
Dew Point: 63.0 F (17.2 C)
Relative Humidity: 80%
Pressure (altimeter): 30.08 in. Hg (1018 hPa)
ob: KSUE 050456Z AUTO 20006KT 9SM CLR 21/17 A3008 RMK AO2 SLP181 T02060172 PNO
cycle: 5

Station Type Date Time Source
KSUE TAF UTC NOAA

Error!

Example: see airport list